createdAt,value
2019-04-03T00:02:02.690Z,9.64
2019-04-03T00:04:34.071Z,9.58
2019-04-03T00:07:00.111Z,9.56
2019-04-03T00:09:26.823Z,9.65
2019-04-03T00:11:53.675Z,9.51
2019-04-03T00:14:20.447Z,9.47
2019-04-03T00:16:47.249Z,9.51
2019-04-03T00:19:14.085Z,9.56
2019-04-03T00:21:40.751Z,9.55
2019-04-03T00:24:07.506Z,9.52
2019-04-03T00:26:34.225Z,9.51
2019-04-03T00:29:01.079Z,9.59
2019-04-03T00:31:28.106Z,9.51
2019-04-03T00:33:55.145Z,9.43
2019-04-03T00:36:23.410Z,9.42
2019-04-03T00:38:50.425Z,9.40
2019-04-03T00:41:17.051Z,9.27
2019-04-03T00:43:43.820Z,9.33
2019-04-03T00:46:10.541Z,9.37
2019-04-03T00:48:37.262Z,9.32
2019-04-03T00:51:04.077Z,9.35
2019-04-03T00:53:31.086Z,9.38
2019-04-03T00:55:57.974Z,9.40
2019-04-03T00:58:44.448Z,9.47
2019-04-03T01:01:11.434Z,9.34
2019-04-03T01:03:38.359Z,9.27
2019-04-03T01:06:05.301Z,9.28
2019-04-03T01:08:32.016Z,9.50
2019-04-03T01:11:00.402Z,9.45
2019-04-03T01:13:27.903Z,9.34
2019-04-03T01:15:54.730Z,9.21
2019-04-03T01:18:21.459Z,9.07
2019-04-03T01:20:48.708Z,8.96
2019-04-03T01:23:15.454Z,8.87
2019-04-03T01:25:42.191Z,8.93
2019-04-03T01:28:09.780Z,8.92
2019-04-03T01:30:37.535Z,8.90
2019-04-03T01:33:04.256Z,8.96
2019-04-03T01:35:31.017Z,9.05
2019-04-03T01:37:57.736Z,9.10
2019-04-03T01:40:24.798Z,8.93
2019-04-03T01:42:52.800Z,8.84
2019-04-03T01:45:20.348Z,8.76
2019-04-03T01:47:46.974Z,8.93
2019-04-03T01:50:13.853Z,8.75
2019-04-03T01:52:40.561Z,8.64
2019-04-03T01:55:07.524Z,8.52
2019-04-03T01:57:36.247Z,8.50
2019-04-03T02:00:03.583Z,8.53
2019-04-03T02:02:30.195Z,8.49
2019-04-03T02:04:56.978Z,8.63
2019-04-03T02:07:24.045Z,8.64
2019-04-03T02:09:50.969Z,8.68
2019-04-03T02:12:19.675Z,8.62
2019-04-03T02:14:46.501Z,8.62
2019-04-03T02:17:13.189Z,8.66
2019-04-03T02:19:40.084Z,8.60
2019-04-03T02:22:06.918Z,8.58
2019-04-03T02:24:33.655Z,8.52
2019-04-03T02:27:00.935Z,8.60
2019-04-03T02:29:29.341Z,8.63
2019-04-03T02:31:56.040Z,8.49
2019-04-03T02:34:23.442Z,8.49
2019-04-03T02:36:50.173Z,8.50
2019-04-03T02:39:17.380Z,8.57
2019-04-03T02:41:44.169Z,8.50
2019-04-03T02:44:30.410Z,8.40
2019-04-03T02:46:59.440Z,8.43
2019-04-03T02:49:25.897Z,8.30
2019-04-03T02:51:53.784Z,8.37
2019-04-03T02:55:08.100Z,8.21
2019-04-03T02:57:35.640Z,8.31
2019-04-03T03:00:02.690Z,8.17
2019-04-03T03:02:31.172Z,8.03
2019-04-03T03:04:57.916Z,8.01
2019-04-03T03:07:24.624Z,7.97
2019-04-03T03:10:33.017Z,7.98
2019-04-03T03:13:41.119Z,7.86
2019-04-03T03:16:08.552Z,7.74
2019-04-03T03:18:59.964Z,7.81
2019-04-03T03:22:06.808Z,7.74
2019-04-03T03:24:55.258Z,7.68
2019-04-03T03:27:22.283Z,7.75
2019-04-03T03:29:49.076Z,7.83
2019-04-03T03:33:21.834Z,7.74
2019-04-03T03:35:30.655Z,7.72
2019-04-03T03:37:55.311Z,7.79
2019-04-03T03:41:04.644Z,7.73
2019-04-03T03:43:31.458Z,7.76
2019-04-03T03:45:58.360Z,7.93
2019-04-03T03:49:06.268Z,7.88
2019-04-03T03:51:32.976Z,7.74
2019-04-03T03:53:59.825Z,7.69
2019-04-03T03:56:30.877Z,7.61
2019-04-03T03:59:36.445Z,7.54
2019-04-03T04:02:05.718Z,7.50
2019-04-03T04:04:32.829Z,7.44
2019-04-03T04:07:02.245Z,7.26
2019-04-03T04:09:28.766Z,7.23
2019-04-03T04:12:39.836Z,7.30
2019-04-03T04:15:46.376Z,7.29
2019-04-03T04:18:57.281Z,7.47
2019-04-03T04:21:23.097Z,7.53
2019-04-03T04:23:50.157Z,7.59
2019-04-03T04:26:58.095Z,7.69
2019-04-03T04:29:25.047Z,7.61
2019-04-03T04:31:52.602Z,7.55
2019-04-03T04:34:32.568Z,7.47
2019-04-03T04:37:02.145Z,7.45
2019-04-03T04:39:29.299Z,7.47
2019-04-03T04:42:07.991Z,7.56
2019-04-03T04:44:34.840Z,7.57
2019-04-03T04:47:01.624Z,7.49
2019-04-03T04:49:28.423Z,7.45
2019-04-03T04:51:56.979Z,7.48
2019-04-03T04:54:24.036Z,7.43
2019-04-03T04:56:50.828Z,7.44
2019-04-03T04:59:17.452Z,7.51
2019-04-03T05:01:44.217Z,7.53
2019-04-03T05:04:11.245Z,7.49
2019-04-03T05:06:38.270Z,7.52
2019-04-03T05:09:26.783Z,7.53
2019-04-03T05:11:53.609Z,7.46
2019-04-03T05:14:20.324Z,7.51
2019-04-03T05:16:47.354Z,7.62
2019-04-03T05:19:18.726Z,7.66
2019-04-03T05:21:43.191Z,7.66
2019-04-03T05:24:12.713Z,7.59
2019-04-03T05:26:38.748Z,7.53
2019-04-03T05:29:06.045Z,7.53
2019-04-03T05:31:33.091Z,7.53
2019-04-03T05:34:00.230Z,7.62
2019-04-03T05:36:27.192Z,7.60
2019-04-03T05:38:54.185Z,7.67
2019-04-03T05:41:21.026Z,7.70
2019-04-03T05:43:47.880Z,7.71
2019-04-03T05:46:14.793Z,7.74
2019-04-03T05:48:41.875Z,7.73
2019-04-03T05:51:08.694Z,7.76
2019-04-03T05:53:37.225Z,7.84
2019-04-03T05:56:04.295Z,8.01
2019-04-03T05:58:31.313Z,7.97
2019-04-03T06:01:05.057Z,8.05
2019-04-03T06:03:46.451Z,8.05
2019-04-03T06:06:14.419Z,8.15
2019-04-03T06:08:42.142Z,8.19
2019-04-03T06:11:09.473Z,8.34
2019-04-03T06:13:37.778Z,8.47
2019-04-03T06:16:04.919Z,8.57
2019-04-03T06:18:32.465Z,8.65
2019-04-03T06:21:00.700Z,8.72
2019-04-03T06:23:27.444Z,8.80
2019-04-03T06:25:54.527Z,8.88
2019-04-03T06:28:21.325Z,8.88
2019-04-03T06:30:48.415Z,8.94
2019-04-03T06:33:16.721Z,9.04
2019-04-03T06:35:45.232Z,9.25
2019-04-03T06:38:25.694Z,9.28
2019-04-03T06:40:52.463Z,9.49
2019-04-03T06:43:19.506Z,9.61
2019-04-03T06:45:46.461Z,9.65
2019-04-03T06:48:13.132Z,9.84
2019-04-03T06:50:39.849Z,9.94
2019-04-03T06:53:06.575Z,10.03
2019-04-03T06:55:35.508Z,10.12
2019-04-03T06:58:01.969Z,9.96
2019-04-03T07:00:28.881Z,10.15
2019-04-03T07:02:55.660Z,10.13
2019-04-03T07:05:22.371Z,10.28
2019-04-03T07:07:49.086Z,10.41
2019-04-03T07:10:24.826Z,10.47
2019-04-03T07:12:44.634Z,10.50
2019-04-03T07:15:11.653Z,10.52
2019-04-03T07:17:39.291Z,10.53
2019-04-03T07:20:14.149Z,10.57
2019-04-03T07:22:36.345Z,10.67
2019-04-03T07:25:03.998Z,10.88
2019-04-03T07:27:31.158Z,10.91
2019-04-03T07:29:58.207Z,10.97
2019-04-03T07:32:26.244Z,10.90
2019-04-03T07:34:54.490Z,11.07
2019-04-03T07:37:21.485Z,11.16
2019-04-03T07:40:01.171Z,11.36
2019-04-03T07:42:27.937Z,11.60
2019-04-03T07:44:54.832Z,11.96
2019-04-03T07:47:21.635Z,12.35
2019-04-03T07:49:48.981Z,12.42
2019-04-03T07:52:16.722Z,12.66
2019-04-03T07:54:44.895Z,12.76
2019-04-03T07:57:11.821Z,12.63
2019-04-03T07:59:38.529Z,12.49
2019-04-03T08:02:24.915Z,12.53
2019-04-03T08:04:51.720Z,12.76
2019-04-03T08:07:18.695Z,12.93
2019-04-03T08:09:46.156Z,13.22
2019-04-03T08:12:12.778Z,13.19
2019-04-03T08:14:41.199Z,13.34
2019-04-03T08:17:09.891Z,13.41
2019-04-03T08:19:36.785Z,13.80
2019-04-03T08:22:05.931Z,13.93
2019-04-03T08:24:33.104Z,13.93
2019-04-03T08:27:00.047Z,13.81
2019-04-03T08:29:26.974Z,14.33
2019-04-03T08:31:54.723Z,14.09
2019-04-03T08:34:21.831Z,14.48
2019-04-03T08:36:48.821Z,14.38
2019-04-03T08:39:16.879Z,14.45
2019-04-03T08:41:57.335Z,14.39
2019-04-03T08:44:24.059Z,14.43
2019-04-03T08:46:50.971Z,14.69
2019-04-03T08:49:18.030Z,14.78
2019-04-03T08:51:44.866Z,14.88
2019-04-03T08:54:12.540Z,15.11
2019-04-03T08:56:39.314Z,15.19
2019-04-03T08:59:07.658Z,15.23
2019-04-03T09:01:37.025Z,14.75
2019-04-03T09:04:03.615Z,15.26
2019-04-03T09:06:30.408Z,15.02
2019-04-03T09:09:17.509Z,15.36
2019-04-03T09:12:06.856Z,15.72
2019-04-03T09:14:33.098Z,15.86
2019-04-03T09:17:02.263Z,16.20
2019-04-03T09:19:28.943Z,16.48
2019-04-03T09:21:55.652Z,16.90
2019-04-03T09:24:22.824Z,16.51
2019-04-03T09:26:50.204Z,16.56
2019-04-03T09:29:16.928Z,17.00
2019-04-03T09:31:44.125Z,17.30
2019-04-03T09:34:11.044Z,17.60
2019-04-03T09:36:37.701Z,17.67
2019-04-03T09:41:55.122Z,17.55
2019-04-03T09:44:24.404Z,18.25
2019-04-03T09:46:50.859Z,18.36
2019-04-03T09:49:17.739Z,18.95
2019-04-03T09:51:44.927Z,18.86
2019-04-03T09:54:11.684Z,19.05
2019-04-03T09:56:54.887Z,18.43
2019-04-03T09:59:08.122Z,18.37
2019-04-03T10:01:36.161Z,19.07
2019-04-03T10:04:03.150Z,19.08
2019-04-03T10:06:31.440Z,19.58
2019-04-03T10:08:59.908Z,20.10
2019-04-03T10:11:28.304Z,20.57
2019-04-03T10:13:57.472Z,20.45
2019-04-03T10:16:24.149Z,19.57
2019-04-03T10:18:51.020Z,19.20
2019-04-03T10:21:19.592Z,19.51
2019-04-03T10:23:46.282Z,19.45
2019-04-03T10:26:13.395Z,19.20
2019-04-03T10:28:42.524Z,19.22
2019-04-03T10:31:09.479Z,19.38
2019-04-03T10:33:40.797Z,19.35
2019-04-03T10:36:12.722Z,18.77
2019-04-03T10:38:41.928Z,19.14
2019-04-03T10:41:10.956Z,19.49
2019-04-03T10:43:37.965Z,19.60
2019-04-03T10:46:04.724Z,19.78
2019-04-03T10:48:31.647Z,19.82
2019-04-03T10:50:58.538Z,20.53
2019-04-03T10:53:25.362Z,19.77
2019-04-03T10:55:52.612Z,19.58
2019-04-03T10:58:19.334Z,20.13
2019-04-03T11:00:45.992Z,20.11
2019-04-03T11:03:13.054Z,20.44
2019-04-03T11:05:39.846Z,20.79
2019-04-03T11:08:06.458Z,20.89
2019-04-03T11:10:33.247Z,21.16
2019-04-03T11:13:00.907Z,21.09
2019-04-03T11:15:28.623Z,21.39
2019-04-03T11:17:55.863Z,20.99
2019-04-03T11:20:22.811Z,21.28
2019-04-03T11:22:49.603Z,21.15
2019-04-03T11:25:16.557Z,20.10
2019-04-03T11:27:45.402Z,19.80
2019-04-03T11:30:53.492Z,18.72
2019-04-03T11:33:20.318Z,18.55
2019-04-03T11:35:47.018Z,18.37
2019-04-03T11:38:22.465Z,18.50
2019-04-03T11:40:42.822Z,18.65
2019-04-03T11:43:11.270Z,19.24
2019-04-03T11:45:37.976Z,19.44
2019-04-03T11:48:04.760Z,19.59
2019-04-03T11:50:32.039Z,19.79
2019-04-03T11:53:02.112Z,20.33
2019-04-03T11:55:29.064Z,20.45
2019-04-03T11:57:56.073Z,20.08
2019-04-03T12:03:01.377Z,20.16
2019-04-03T12:05:28.227Z,19.84
2019-04-03T12:07:56.650Z,20.17
2019-04-03T12:10:25.951Z,19.91
2019-04-03T12:12:52.827Z,19.83
2019-04-03T12:15:21.554Z,20.28
2019-04-03T12:17:48.223Z,20.05
2019-04-03T12:20:16.344Z,19.84
2019-04-03T12:22:44.264Z,19.75
2019-04-03T12:25:53.786Z,19.58
2019-04-03T12:28:20.571Z,19.83
2019-04-03T12:30:47.236Z,19.84
2019-04-03T12:33:13.912Z,20.20
2019-04-03T12:35:42.326Z,20.24
2019-04-03T12:38:09.231Z,20.11
2019-04-03T12:40:36.075Z,20.07
2019-04-03T12:43:03.290Z,20.30
2019-04-03T12:45:30.344Z,20.15
2019-04-03T12:47:57.138Z,20.54
2019-04-03T12:50:26.534Z,20.24
2019-04-03T12:52:52.724Z,20.30
2019-04-03T12:55:21.092Z,20.06
2019-04-03T12:57:47.708Z,20.08
2019-04-03T13:00:55.520Z,19.91
2019-04-03T13:03:24.204Z,20.00
2019-04-03T13:05:51.738Z,20.26
2019-04-03T13:08:21.668Z,20.12
2019-04-03T13:10:49.730Z,20.43
2019-04-03T13:13:16.443Z,20.28
2019-04-03T13:15:43.111Z,20.41
2019-04-03T13:18:09.973Z,20.47
2019-04-03T13:20:37.698Z,20.15
2019-04-03T13:23:05.834Z,20.63
2019-04-03T13:25:32.974Z,20.76
2019-04-03T13:27:59.611Z,21.08
2019-04-03T13:30:26.752Z,21.20
2019-04-03T13:32:59.680Z,21.26
2019-04-03T13:35:24.294Z,21.10
2019-04-03T13:37:51.056Z,21.26
2019-04-03T13:40:17.902Z,21.41
2019-04-03T13:42:47.568Z,21.43
2019-04-03T13:45:13.686Z,21.57
2019-04-03T13:47:42.834Z,21.74
2019-04-03T13:50:09.585Z,21.84
2019-04-03T13:52:40.872Z,21.96
2019-04-03T13:55:46.702Z,21.96
2019-04-03T13:58:13.511Z,22.03
2019-04-03T14:00:40.693Z,22.05
2019-04-03T14:03:09.250Z,22.22
2019-04-03T14:05:36.960Z,21.27
2019-04-03T14:08:07.119Z,21.77
2019-04-03T14:10:34.165Z,21.67
2019-04-03T14:13:01.169Z,21.63
2019-04-03T14:15:27.842Z,20.85
2019-04-03T14:17:58.394Z,20.37
2019-04-03T14:20:24.222Z,19.96
2019-04-03T14:22:52.248Z,20.00
2019-04-03T14:25:23.112Z,19.95
2019-04-03T14:27:49.274Z,19.77
2019-04-03T14:30:16.542Z,19.42
2019-04-03T14:32:45.443Z,19.59
2019-04-03T14:35:40.532Z,19.38
2019-04-03T14:37:40.999Z,19.41
2019-04-03T14:40:11.092Z,19.71
2019-04-03T14:42:36.675Z,19.64
2019-04-03T14:45:03.804Z,20.00
2019-04-03T14:47:31.008Z,19.64
2019-04-03T14:49:59.325Z,19.77
2019-04-03T14:52:26.361Z,19.53
2019-04-03T14:54:53.850Z,19.65
2019-04-03T14:57:23.653Z,19.58
2019-04-03T14:59:50.813Z,19.18
2019-04-03T15:02:19.229Z,19.22
2019-04-03T15:04:45.958Z,19.02
2019-04-03T15:07:13.147Z,19.14
2019-04-03T15:09:41.277Z,19.26
2019-04-03T15:12:08.187Z,19.32
2019-04-03T15:14:35.209Z,19.26
2019-04-03T15:17:04.745Z,19.09
2019-04-03T15:19:31.218Z,19.39
2019-04-03T15:22:02.198Z,19.31
2019-04-03T15:24:28.315Z,19.31
2019-04-03T15:26:55.133Z,19.29
2019-04-03T15:29:22.921Z,19.25
2019-04-03T15:31:51.548Z,19.10
2019-04-03T15:34:19.878Z,19.00
2019-04-03T15:36:46.491Z,19.03
2019-04-03T15:39:16.413Z,19.06
2019-04-03T15:41:42.502Z,18.95
2019-04-03T15:44:09.675Z,18.94
2019-04-03T15:46:38.289Z,18.87
2019-04-03T15:49:05.329Z,18.80
2019-04-03T15:51:32.150Z,18.91
2019-04-03T15:54:00.179Z,18.68
2019-04-03T15:56:28.163Z,18.75
2019-04-03T15:58:57.356Z,18.83
2019-04-03T16:01:24.301Z,18.75
2019-04-03T16:03:51.302Z,18.94
2019-04-03T16:06:18.333Z,18.97
2019-04-03T16:08:47.371Z,18.89
2019-04-03T16:11:14.335Z,19.01
2019-04-03T16:13:41.118Z,19.00
2019-04-03T16:16:08.198Z,19.14
2019-04-03T16:18:38.580Z,19.06
2019-04-03T16:21:05.784Z,18.97
2019-04-03T16:23:34.237Z,19.07
2019-04-03T16:26:02.456Z,19.03
2019-04-03T16:28:29.678Z,18.96
2019-04-03T16:30:57.988Z,18.93
2019-04-03T16:33:25.662Z,18.83
2019-04-03T16:35:53.921Z,18.66
2019-04-03T16:38:20.655Z,18.66
2019-04-03T16:40:47.588Z,18.59
2019-04-03T16:43:15.093Z,18.49
2019-04-03T16:45:43.773Z,18.62
2019-04-03T16:48:10.627Z,18.53
2019-04-03T16:50:39.627Z,18.38
2019-04-03T16:53:07.464Z,18.30
2019-04-03T16:55:35.706Z,18.14
2019-04-03T16:58:02.922Z,18.09
2019-04-03T17:00:30.164Z,17.89
2019-04-03T17:02:57.383Z,17.84
2019-04-03T17:05:24.102Z,17.75
2019-04-03T17:07:53.224Z,17.52
2019-04-03T17:10:19.485Z,17.33
2019-04-03T17:12:49.564Z,17.27
2019-04-03T17:15:15.484Z,17.08
2019-04-03T17:17:45.664Z,16.86
2019-04-03T17:20:13.022Z,16.79
2019-04-03T17:22:42.148Z,16.73
2019-04-03T17:25:10.828Z,16.63
2019-04-03T17:27:37.793Z,16.71
2019-04-03T17:30:05.602Z,16.60
2019-04-03T17:32:32.796Z,16.47
2019-04-03T17:35:01.427Z,16.38
2019-04-03T17:37:30.959Z,16.43
2019-04-03T17:39:58.669Z,16.39
2019-04-03T17:42:25.873Z,16.26
2019-04-03T17:44:54.049Z,16.22
2019-04-03T17:47:20.998Z,16.16
2019-04-03T17:49:48.002Z,16.10
2019-04-03T17:52:14.740Z,16.23
2019-04-03T17:54:41.796Z,16.18
2019-04-03T17:57:08.511Z,16.07
2019-04-03T17:59:49.477Z,16.02
2019-04-03T18:02:16.249Z,15.87
2019-04-03T18:04:42.887Z,15.84
2019-04-03T18:07:11.927Z,15.79
2019-04-03T18:09:38.249Z,15.72
2019-04-03T18:12:05.635Z,15.68
2019-04-03T18:14:32.310Z,15.51
2019-04-03T18:17:01.135Z,15.39
2019-04-03T18:19:37.416Z,15.32
2019-04-03T18:21:57.254Z,15.24
2019-04-03T18:24:23.879Z,15.12
2019-04-03T18:26:51.414Z,15.12
2019-04-03T18:29:18.094Z,15.06
2019-04-03T18:31:45.237Z,15.01
2019-04-03T18:34:12.384Z,15.01
2019-04-03T18:36:39.818Z,14.89
2019-04-03T18:39:09.728Z,14.85
2019-04-03T18:41:36.626Z,15.09
2019-04-03T18:44:03.748Z,15.08
2019-04-03T18:46:32.418Z,14.97
2019-04-03T18:49:01.534Z,14.97
2019-04-03T18:51:28.827Z,14.93
2019-04-03T18:53:55.671Z,14.78
2019-04-03T18:56:22.394Z,14.61
2019-04-03T18:58:49.468Z,14.55
2019-04-03T19:01:17.154Z,14.42
2019-04-03T19:03:44.797Z,14.38
2019-04-03T19:06:31.713Z,14.30
2019-04-03T19:09:09.247Z,14.21
2019-04-03T19:11:27.121Z,14.03
2019-04-03T19:13:54.180Z,13.93
2019-04-03T19:16:29.387Z,13.94
2019-04-03T19:18:50.351Z,13.99
2019-04-03T19:21:24.290Z,13.89
2019-04-03T19:23:49.781Z,13.83
2019-04-03T19:26:14.599Z,13.85
2019-04-03T19:28:41.271Z,13.80
2019-04-03T19:31:08.754Z,13.76
2019-04-03T19:33:36.758Z,13.69
2019-04-03T19:36:03.546Z,13.67
2019-04-03T19:38:30.135Z,13.68
2019-04-03T19:40:57.203Z,13.70
2019-04-03T19:43:24.237Z,13.61
2019-04-03T19:45:51.826Z,13.57
2019-04-03T19:48:19.593Z,13.48
2019-04-03T19:50:46.418Z,13.44
2019-04-03T19:53:14.079Z,13.30
2019-04-03T19:55:42.296Z,13.22
2019-04-03T19:58:09.096Z,13.07
2019-04-03T20:00:35.817Z,12.96
2019-04-03T20:03:03.002Z,12.98
2019-04-03T20:05:29.807Z,12.94
2019-04-03T20:07:58.551Z,13.05
2019-04-03T20:10:25.256Z,13.08
2019-04-03T20:12:52.166Z,13.09
2019-04-03T20:15:18.916Z,13.15
2019-04-03T20:17:45.608Z,13.26
2019-04-03T20:20:12.566Z,13.38
2019-04-03T20:22:42.457Z,13.42
2019-04-03T20:25:08.779Z,13.45
2019-04-03T20:27:35.672Z,13.46
2019-04-03T20:30:03.400Z,13.28
2019-04-03T20:32:30.304Z,13.28
2019-04-03T20:34:56.971Z,13.15
2019-04-03T20:37:25.988Z,13.11
2019-04-03T20:39:52.326Z,13.26
2019-04-03T20:42:19.004Z,13.15
2019-04-03T20:44:47.937Z,13.39
2019-04-03T20:47:14.588Z,13.50
2019-04-03T20:49:43.712Z,13.50
2019-04-03T20:52:11.457Z,13.53
2019-04-03T20:54:39.123Z,13.48
2019-04-03T20:57:06.203Z,13.50
2019-04-03T20:59:33.292Z,13.44
2019-04-03T21:02:00.079Z,13.46
2019-04-03T21:04:26.968Z,13.34
2019-04-03T21:06:53.872Z,13.31
2019-04-03T21:09:20.627Z,13.28
2019-04-03T21:11:47.496Z,13.27
2019-04-03T21:14:14.215Z,13.22
2019-04-03T21:16:41.898Z,13.19
2019-04-03T21:19:09.662Z,13.18
2019-04-03T21:21:36.717Z,13.28
2019-04-03T21:24:04.091Z,13.25
2019-04-03T21:26:32.226Z,13.27
2019-04-03T21:28:59.088Z,13.29
2019-04-03T21:31:26.580Z,13.28
2019-04-03T21:33:54.901Z,13.28
2019-04-03T21:36:21.688Z,13.46
2019-04-03T21:38:49.215Z,13.43
2019-04-03T21:41:36.137Z,13.50
2019-04-03T21:44:03.368Z,13.56
2019-04-03T21:46:30.677Z,13.47
2019-04-03T21:48:57.979Z,13.45
2019-04-03T21:51:24.614Z,13.44
2019-04-03T21:53:51.764Z,13.44
2019-04-03T21:56:19.530Z,13.37
2019-04-03T21:58:46.271Z,13.27
2019-04-03T22:01:32.866Z,13.23
2019-04-03T22:04:00.121Z,13.18
2019-04-03T22:06:27.870Z,13.20
2019-04-03T22:08:59.701Z,13.15
2019-04-03T22:11:25.480Z,13.12
2019-04-03T22:13:52.670Z,13.14
2019-04-03T22:16:20.512Z,13.12
2019-04-03T22:18:48.495Z,13.13
2019-04-03T22:21:34.942Z,13.15
2019-04-03T22:24:02.284Z,12.98
2019-04-03T22:26:29.432Z,12.92
2019-04-03T22:28:56.318Z,12.86
2019-04-03T22:31:23.363Z,12.79
2019-04-03T22:33:50.714Z,12.78
2019-04-03T22:36:17.780Z,12.71
2019-04-03T22:38:44.753Z,12.65
2019-04-03T22:41:12.760Z,12.60
2019-04-03T22:43:40.628Z,12.50
2019-04-03T22:46:08.219Z,12.52
2019-04-03T22:48:34.942Z,12.50
2019-04-03T22:51:02.041Z,12.56
2019-04-03T22:53:28.670Z,12.55
2019-04-03T22:55:56.723Z,12.42
2019-04-03T22:58:46.349Z,12.37
2019-04-03T23:01:14.899Z,12.36
2019-04-03T23:03:41.609Z,12.43
2019-04-03T23:06:08.666Z,12.58
2019-04-03T23:08:48.654Z,12.72
2019-04-03T23:11:15.575Z,12.63
2019-04-03T23:13:42.876Z,12.54
2019-04-03T23:16:11.532Z,12.49
2019-04-03T23:18:38.374Z,12.46
2019-04-03T23:21:05.380Z,12.26
2019-04-03T23:23:32.024Z,12.10
2019-04-03T23:26:00.884Z,12.16
2019-04-03T23:28:27.546Z,12.15
2019-04-03T23:30:54.443Z,12.05
2019-04-03T23:33:21.219Z,12.09
2019-04-03T23:35:49.103Z,11.97
2019-04-03T23:38:16.563Z,11.97
2019-04-03T23:40:43.662Z,12.00
2019-04-03T23:43:10.266Z,12.08
2019-04-03T23:45:36.886Z,12.11
2019-04-03T23:48:03.662Z,11.99
2019-04-03T23:50:30.311Z,11.94
2019-04-03T23:52:56.932Z,11.92
2019-04-03T23:55:23.723Z,12.00
2019-04-03T23:57:50.434Z,11.94
